sensor_id;sensor_type;location;lat;lon;timestamp;temperature;humidity
15386;DHT22;7791;47.246;9.648;2023-11-18T00:00:09;4.60;99.90
15386;DHT22;7791;47.246;9.648;2023-11-18T00:02:35;4.50;99.90
15386;DHT22;7791;47.246;9.648;2023-11-18T00:05:02;4.40;99.90
15386;DHT22;7791;47.246;9.648;2023-11-18T00:07:28;4.30;99.90
15386;DHT22;7791;47.246;9.648;2023-11-18T00:09:55;4.30;99.90
15386;DHT22;7791;47.246;9.648;2023-11-18T00:12:21;4.50;99.90
15386;DHT22;7791;47.246;9.648;2023-11-18T00:14:46;4.60;99.90
15386;DHT22;7791;47.246;9.648;2023-11-18T00:17:12;4.70;99.90
15386;DHT22;7791;47.246;9.648;2023-11-18T00:19:38;4.70;99.90
15386;DHT22;7791;47.246;9.648;2023-11-18T00:22:05;4.80;99.90
15386;DHT22;7791;47.246;9.648;2023-11-18T00:24:31;4.80;99.90
15386;DHT22;7791;47.246;9.648;2023-11-18T00:26:57;4.80;99.90
15386;DHT22;7791;47.246;9.648;2023-11-18T00:29:22;4.80;99.90
15386;DHT22;7791;47.246;9.648;2023-11-18T00:31:48;4.90;99.90
15386;DHT22;7791;47.246;9.648;2023-11-18T00:34:14;4.90;99.90
15386;DHT22;7791;47.246;9.648;2023-11-18T00:36:40;4.90;99.90
15386;DHT22;7791;47.246;9.648;2023-11-18T00:39:08;4.80;99.90
15386;DHT22;7791;47.246;9.648;2023-11-18T00:41:33;4.80;99.90
15386;DHT22;7791;47.246;9.648;2023-11-18T00:43:59;4.80;99.90
15386;DHT22;7791;47.246;9.648;2023-11-18T00:46:25;4.80;99.90
15386;DHT22;7791;47.246;9.648;2023-11-18T00:48:52;4.80;99.90
15386;DHT22;7791;47.246;9.648;2023-11-18T00:51:17;4.80;99.90
15386;DHT22;7791;47.246;9.648;2023-11-18T00:53:43;4.80;99.90
15386;DHT22;7791;47.246;9.648;2023-11-18T00:56:15;4.70;99.90
15386;DHT22;7791;47.246;9.648;2023-11-18T00:58:40;4.60;99.90
15386;DHT22;7791;47.246;9.648;2023-11-18T01:01:06;4.40;99.90
15386;DHT22;7791;47.246;9.648;2023-11-18T01:03:32;4.40;99.90
15386;DHT22;7791;47.246;9.648;2023-11-18T01:05:58;4.30;99.90
15386;DHT22;7791;47.246;9.648;2023-11-18T01:08:23;4.20;99.90
15386;DHT22;7791;47.246;9.648;2023-11-18T01:10:49;4.00;99.90
15386;DHT22;7791;47.246;9.648;2023-11-18T01:13:16;3.90;99.90
15386;DHT22;7791;47.246;9.648;2023-11-18T01:15:42;3.80;99.90
15386;DHT22;7791;47.246;9.648;2023-11-18T01:18:08;3.70;99.90
15386;DHT22;7791;47.246;9.648;2023-11-18T01:20:33;3.60;99.90
15386;DHT22;7791;47.246;9.648;2023-11-18T01:22:59;3.60;99.90
15386;DHT22;7791;47.246;9.648;2023-11-18T01:25:25;3.70;99.90
15386;DHT22;7791;47.246;9.648;2023-11-18T01:27:51;3.70;99.90
15386;DHT22;7791;47.246;9.648;2023-11-18T01:30:18;3.70;99.90
15386;DHT22;7791;47.246;9.648;2023-11-18T01:32:44;3.70;99.90
15386;DHT22;7791;47.246;9.648;2023-11-18T01:35:10;3.70;99.90
15386;DHT22;7791;47.246;9.648;2023-11-18T01:37:35;3.70;99.90
15386;DHT22;7791;47.246;9.648;2023-11-18T01:40:01;3.60;99.90
15386;DHT22;7791;47.246;9.648;2023-11-18T01:42:27;3.60;99.90
15386;DHT22;7791;47.246;9.648;2023-11-18T01:44:52;3.50;99.90
15386;DHT22;7791;47.246;9.648;2023-11-18T01:47:19;3.40;99.90
15386;DHT22;7791;47.246;9.648;2023-11-18T01:49:45;3.40;99.90
15386;DHT22;7791;47.246;9.648;2023-11-18T01:52:11;3.40;99.90
15386;DHT22;7791;47.246;9.648;2023-11-18T01:54:38;3.40;99.90
15386;DHT22;7791;47.246;9.648;2023-11-18T01:57:04;3.20;99.90
15386;DHT22;7791;47.246;9.648;2023-11-18T01:59:31;3.20;99.90
15386;DHT22;7791;47.246;9.648;2023-11-18T02:01:56;3.30;99.90
15386;DHT22;7791;47.246;9.648;2023-11-18T02:04:24;3.50;99.90
15386;DHT22;7791;47.246;9.648;2023-11-18T02:06:50;3.60;99.90
15386;DHT22;7791;47.246;9.648;2023-11-18T02:09:16;3.80;99.90
15386;DHT22;7791;47.246;9.648;2023-11-18T02:11:47;3.90;99.90
15386;DHT22;7791;47.246;9.648;2023-11-18T02:14:18;4.10;99.90
15386;DHT22;7791;47.246;9.648;2023-11-18T02:16:48;4.10;99.90
15386;DHT22;7791;47.246;9.648;2023-11-18T02:19:19;4.10;99.90
15386;DHT22;7791;47.246;9.648;2023-11-18T02:21:47;4.10;99.90
15386;DHT22;7791;47.246;9.648;2023-11-18T02:24:24;4.00;99.90
15386;DHT22;7791;47.246;9.648;2023-11-18T02:26:52;4.10;99.90
15386;DHT22;7791;47.246;9.648;2023-11-18T02:29:17;4.00;99.90
15386;DHT22;7791;47.246;9.648;2023-11-18T02:31:44;3.90;99.90
15386;DHT22;7791;47.246;9.648;2023-11-18T02:34:15;3.80;99.90
15386;DHT22;7791;47.246;9.648;2023-11-18T02:36:46;3.60;99.90
15386;DHT22;7791;47.246;9.648;2023-11-18T02:39:18;3.50;99.90
15386;DHT22;7791;47.246;9.648;2023-11-18T02:41:48;3.40;99.90
15386;DHT22;7791;47.246;9.648;2023-11-18T02:44:18;3.30;99.90
15386;DHT22;7791;47.246;9.648;2023-11-18T02:46:45;3.20;99.90
15386;DHT22;7791;47.246;9.648;2023-11-18T02:49:11;3.10;99.90
15386;DHT22;7791;47.246;9.648;2023-11-18T02:51:36;3.20;99.90
15386;DHT22;7791;47.246;9.648;2023-11-18T02:54:02;3.20;99.90
15386;DHT22;7791;47.246;9.648;2023-11-18T02:56:28;3.30;99.90
15386;DHT22;7791;47.246;9.648;2023-11-18T02:58:54;3.20;99.90
15386;DHT22;7791;47.246;9.648;2023-11-18T03:01:21;3.10;99.90
15386;DHT22;7791;47.246;9.648;2023-11-18T03:03:47;3.10;99.90
15386;DHT22;7791;47.246;9.648;2023-11-18T03:06:12;3.00;99.90
15386;DHT22;7791;47.246;9.648;2023-11-18T03:08:38;3.00;99.90
15386;DHT22;7791;47.246;9.648;2023-11-18T03:11:04;2.90;99.90
15386;DHT22;7791;47.246;9.648;2023-11-18T03:13:29;2.90;99.90
15386;DHT22;7791;47.246;9.648;2023-11-18T03:15:55;2.90;99.90
15386;DHT22;7791;47.246;9.648;2023-11-18T03:18:22;2.90;99.90
15386;DHT22;7791;47.246;9.648;2023-11-18T03:20:48;3.00;99.90
15386;DHT22;7791;47.246;9.648;2023-11-18T03:23:14;2.90;99.90
15386;DHT22;7791;47.246;9.648;2023-11-18T03:25:39;2.90;99.90
15386;DHT22;7791;47.246;9.648;2023-11-18T03:28:05;2.90;99.90
15386;DHT22;7791;47.246;9.648;2023-11-18T03:30:31;2.90;99.90
15386;DHT22;7791;47.246;9.648;2023-11-18T03:32:56;3.00;99.90
15386;DHT22;7791;47.246;9.648;2023-11-18T03:35:24;3.00;99.90
15386;DHT22;7791;47.246;9.648;2023-11-18T03:37:49;3.20;99.90
15386;DHT22;7791;47.246;9.648;2023-11-18T03:40:15;3.20;99.90
15386;DHT22;7791;47.246;9.648;2023-11-18T03:42:41;3.20;99.90
15386;DHT22;7791;47.246;9.648;2023-11-18T03:45:08;3.20;99.90
15386;DHT22;7791;47.246;9.648;2023-11-18T03:47:34;3.20;99.90
15386;DHT22;7791;47.246;9.648;2023-11-18T03:50:01;3.30;99.90
15386;DHT22;7791;47.246;9.648;2023-11-18T03:52:29;3.20;99.90
15386;DHT22;7791;47.246;9.648;2023-11-18T03:54:54;3.20;99.90
15386;DHT22;7791;47.246;9.648;2023-11-18T03:57:20;3.30;99.90
15386;DHT22;7791;47.246;9.648;2023-11-18T03:59:46;3.30;99.90
15386;DHT22;7791;47.246;9.648;2023-11-18T04:02:11;3.20;99.90
15386;DHT22;7791;47.246;9.648;2023-11-18T04:04:37;3.20;99.90
15386;DHT22;7791;47.246;9.648;2023-11-18T04:07:03;3.20;99.90
15386;DHT22;7791;47.246;9.648;2023-11-18T04:09:30;3.10;99.90
15386;DHT22;7791;47.246;9.648;2023-11-18T04:11:56;3.00;99.90
15386;DHT22;7791;47.246;9.648;2023-11-18T04:14:22;3.00;99.90
15386;DHT22;7791;47.246;9.648;2023-11-18T04:16:47;3.00;99.90
15386;DHT22;7791;47.246;9.648;2023-11-18T04:19:13;2.90;99.90
15386;DHT22;7791;47.246;9.648;2023-11-18T04:21:39;2.80;99.90
15386;DHT22;7791;47.246;9.648;2023-11-18T04:24:06;2.80;99.90
15386;DHT22;7791;47.246;9.648;2023-11-18T04:26:33;2.70;99.90
15386;DHT22;7791;47.246;9.648;2023-11-18T04:28:59;2.60;99.90
15386;DHT22;7791;47.246;9.648;2023-11-18T04:31:24;2.50;99.90
15386;DHT22;7791;47.246;9.648;2023-11-18T04:33:50;2.50;99.90
15386;DHT22;7791;47.246;9.648;2023-11-18T04:36:16;2.50;99.90
15386;DHT22;7791;47.246;9.648;2023-11-18T04:38:42;2.40;99.90
15386;DHT22;7791;47.246;9.648;2023-11-18T04:41:08;2.40;99.90
15386;DHT22;7791;47.246;9.648;2023-11-18T04:43:35;2.40;99.90
15386;DHT22;7791;47.246;9.648;2023-11-18T04:46:01;2.30;99.90
15386;DHT22;7791;47.246;9.648;2023-11-18T04:48:27;2.20;99.90
15386;DHT22;7791;47.246;9.648;2023-11-18T04:50:52;2.00;99.90
15386;DHT22;7791;47.246;9.648;2023-11-18T04:53:18;1.90;99.90
15386;DHT22;7791;47.246;9.648;2023-11-18T04:55:44;1.90;99.90
15386;DHT22;7791;47.246;9.648;2023-11-18T04:58:09;1.90;99.90
15386;DHT22;7791;47.246;9.648;2023-11-18T05:00:36;1.90;99.90
15386;DHT22;7791;47.246;9.648;2023-11-18T05:03:02;1.80;99.90
15386;DHT22;7791;47.246;9.648;2023-11-18T05:05:28;1.80;99.90
15386;DHT22;7791;47.246;9.648;2023-11-18T05:07:54;1.70;99.90
15386;DHT22;7791;47.246;9.648;2023-11-18T05:10:19;1.70;99.90
15386;DHT22;7791;47.246;9.648;2023-11-18T05:12:45;1.60;99.90
15386;DHT22;7791;47.246;9.648;2023-11-18T05:15:11;1.70;99.90
15386;DHT22;7791;47.246;9.648;2023-11-18T05:17:38;1.60;99.90
15386;DHT22;7791;47.246;9.648;2023-11-18T05:20:04;1.60;99.90
15386;DHT22;7791;47.246;9.648;2023-11-18T05:22:30;1.60;99.90
15386;DHT22;7791;47.246;9.648;2023-11-18T05:24:56;1.60;99.90
15386;DHT22;7791;47.246;9.648;2023-11-18T05:27:22;1.60;99.90
15386;DHT22;7791;47.246;9.648;2023-11-18T05:29:47;1.60;99.90
15386;DHT22;7791;47.246;9.648;2023-11-18T05:32:13;1.70;99.90
15386;DHT22;7791;47.246;9.648;2023-11-18T05:34:40;1.70;99.90
15386;DHT22;7791;47.246;9.648;2023-11-18T05:37:06;1.80;99.90
15386;DHT22;7791;47.246;9.648;2023-11-18T05:39:32;1.80;99.90
15386;DHT22;7791;47.246;9.648;2023-11-18T05:41:57;1.80;99.90
15386;DHT22;7791;47.246;9.648;2023-11-18T05:44:23;1.80;99.90
15386;DHT22;7791;47.246;9.648;2023-11-18T05:46:49;1.70;99.90
15386;DHT22;7791;47.246;9.648;2023-11-18T05:49:14;1.60;99.90
15386;DHT22;7791;47.246;9.648;2023-11-18T05:51:41;1.50;99.90
15386;DHT22;7791;47.246;9.648;2023-11-18T05:54:07;1.40;99.90
15386;DHT22;7791;47.246;9.648;2023-11-18T05:56:33;1.30;99.90
15386;DHT22;7791;47.246;9.648;2023-11-18T05:59:01;1.30;99.90
15386;DHT22;7791;47.246;9.648;2023-11-18T06:01:26;1.30;99.90
15386;DHT22;7791;47.246;9.648;2023-11-18T06:03:52;1.40;99.90
15386;DHT22;7791;47.246;9.648;2023-11-18T06:06:19;1.60;99.90
15386;DHT22;7791;47.246;9.648;2023-11-18T06:08:46;1.80;99.90
15386;DHT22;7791;47.246;9.648;2023-11-18T06:11:13;1.90;99.90
15386;DHT22;7791;47.246;9.648;2023-11-18T06:13:42;2.00;99.90
15386;DHT22;7791;47.246;9.648;2023-11-18T06:16:09;2.10;99.90
15386;DHT22;7791;47.246;9.648;2023-11-18T06:18:35;2.20;99.90
15386;DHT22;7791;47.246;9.648;2023-11-18T06:21:01;2.20;99.90
15386;DHT22;7791;47.246;9.648;2023-11-18T06:23:26;2.20;99.90
15386;DHT22;7791;47.246;9.648;2023-11-18T06:25:54;2.20;99.90
15386;DHT22;7791;47.246;9.648;2023-11-18T06:28:20;2.20;99.90
15386;DHT22;7791;47.246;9.648;2023-11-18T06:30:45;2.20;99.90
15386;DHT22;7791;47.246;9.648;2023-11-18T06:33:11;2.20;99.90
15386;DHT22;7791;47.246;9.648;2023-11-18T06:35:37;2.30;99.90
15386;DHT22;7791;47.246;9.648;2023-11-18T06:38:03;2.30;99.90
15386;DHT22;7791;47.246;9.648;2023-11-18T06:40:29;2.30;99.90
15386;DHT22;7791;47.246;9.648;2023-11-18T06:42:59;2.30;99.90
15386;DHT22;7791;47.246;9.648;2023-11-18T06:45:25;2.40;99.90
15386;DHT22;7791;47.246;9.648;2023-11-18T06:47:51;2.50;99.90
15386;DHT22;7791;47.246;9.648;2023-11-18T06:50:17;2.60;99.90
15386;DHT22;7791;47.246;9.648;2023-11-18T06:52:43;2.70;99.90
15386;DHT22;7791;47.246;9.648;2023-11-18T06:55:08;2.70;99.90
15386;DHT22;7791;47.246;9.648;2023-11-18T06:57:35;2.70;99.90
15386;DHT22;7791;47.246;9.648;2023-11-18T07:00:03;2.70;99.90
15386;DHT22;7791;47.246;9.648;2023-11-18T07:02:29;2.70;99.90
15386;DHT22;7791;47.246;9.648;2023-11-18T07:04:56;2.70;99.90
15386;DHT22;7791;47.246;9.648;2023-11-18T07:07:23;2.80;99.90
15386;DHT22;7791;47.246;9.648;2023-11-18T07:09:49;2.80;99.90
15386;DHT22;7791;47.246;9.648;2023-11-18T07:12:15;2.90;99.90
15386;DHT22;7791;47.246;9.648;2023-11-18T07:14:41;2.90;99.90
15386;DHT22;7791;47.246;9.648;2023-11-18T07:17:09;2.80;99.90
15386;DHT22;7791;47.246;9.648;2023-11-18T07:19:35;2.80;99.90
15386;DHT22;7791;47.246;9.648;2023-11-18T07:22:00;2.90;99.90
15386;DHT22;7791;47.246;9.648;2023-11-18T07:24:26;2.90;99.90
15386;DHT22;7791;47.246;9.648;2023-11-18T07:26:52;3.00;99.90
15386;DHT22;7791;47.246;9.648;2023-11-18T07:29:17;3.00;99.90
15386;DHT22;7791;47.246;9.648;2023-11-18T07:31:43;3.10;99.90
15386;DHT22;7791;47.246;9.648;2023-11-18T07:34:11;3.20;99.90
15386;DHT22;7791;47.246;9.648;2023-11-18T07:36:37;3.40;99.90
15386;DHT22;7791;47.246;9.648;2023-11-18T07:39:03;3.90;99.90
15386;DHT22;7791;47.246;9.648;2023-11-18T07:41:31;4.70;99.90
15386;DHT22;7791;47.246;9.648;2023-11-18T07:43:57;5.20;99.90
15386;DHT22;7791;47.246;9.648;2023-11-18T07:46:23;5.50;99.90
15386;DHT22;7791;47.246;9.648;2023-11-18T07:48:50;5.50;99.90
15386;DHT22;7791;47.246;9.648;2023-11-18T07:51:24;5.60;99.90
15386;DHT22;7791;47.246;9.648;2023-11-18T07:53:53;5.70;99.90
15386;DHT22;7791;47.246;9.648;2023-11-18T07:56:20;5.70;99.90
15386;DHT22;7791;47.246;9.648;2023-11-18T07:58:46;5.60;99.90
15386;DHT22;7791;47.246;9.648;2023-11-18T08:01:12;5.60;99.90
15386;DHT22;7791;47.246;9.648;2023-11-18T08:03:38;5.40;99.90
15386;DHT22;7791;47.246;9.648;2023-11-18T08:06:05;5.10;99.90
15386;DHT22;7791;47.246;9.648;2023-11-18T08:08:33;5.00;99.90
15386;DHT22;7791;47.246;9.648;2023-11-18T08:10:59;5.10;99.90
15386;DHT22;7791;47.246;9.648;2023-11-18T08:13:25;5.40;99.90
15386;DHT22;7791;47.246;9.648;2023-11-18T08:15:51;5.60;99.90
15386;DHT22;7791;47.246;9.648;2023-11-18T08:18:19;5.80;99.90
15386;DHT22;7791;47.246;9.648;2023-11-18T08:20:44;6.00;99.90
15386;DHT22;7791;47.246;9.648;2023-11-18T08:23:10;6.00;99.90
15386;DHT22;7791;47.246;9.648;2023-11-18T08:25:38;6.40;99.90
15386;DHT22;7791;47.246;9.648;2023-11-18T08:28:04;6.60;99.90
15386;DHT22;7791;47.246;9.648;2023-11-18T08:30:30;6.80;99.90
15386;DHT22;7791;47.246;9.648;2023-11-18T08:32:56;7.00;99.90
15386;DHT22;7791;47.246;9.648;2023-11-18T08:35:21;7.60;99.90
15386;DHT22;7791;47.246;9.648;2023-11-18T08:37:47;8.00;99.90
15386;DHT22;7791;47.246;9.648;2023-11-18T08:40:14;8.20;99.90
15386;DHT22;7791;47.246;9.648;2023-11-18T08:42:42;8.50;99.90
15386;DHT22;7791;47.246;9.648;2023-11-18T08:45:08;8.30;99.90
15386;DHT22;7791;47.246;9.648;2023-11-18T08:47:34;8.10;99.90
15386;DHT22;7791;47.246;9.648;2023-11-18T08:50:00;7.90;99.90
15386;DHT22;7791;47.246;9.648;2023-11-18T08:52:26;8.10;99.90
15386;DHT22;7791;47.246;9.648;2023-11-18T08:54:52;8.20;99.90
15386;DHT22;7791;47.246;9.648;2023-11-18T08:57:17;8.30;99.90
15386;DHT22;7791;47.246;9.648;2023-11-18T08:59:45;8.80;99.90
15386;DHT22;7791;47.246;9.648;2023-11-18T09:02:11;8.70;99.90
15386;DHT22;7791;47.246;9.648;2023-11-18T09:04:36;9.10;99.90
15386;DHT22;7791;47.246;9.648;2023-11-18T09:07:02;9.60;99.90
15386;DHT22;7791;47.246;9.648;2023-11-18T09:09:28;10.20;99.90
15386;DHT22;7791;47.246;9.648;2023-11-18T09:11:55;10.30;99.90
15386;DHT22;7791;47.246;9.648;2023-11-18T09:14:21;10.30;99.90
15386;DHT22;7791;47.246;9.648;2023-11-18T09:16:48;10.40;99.90
15386;DHT22;7791;47.246;9.648;2023-11-18T09:19:14;10.50;99.90
15386;DHT22;7791;47.246;9.648;2023-11-18T09:21:40;10.70;99.90
15386;DHT22;7791;47.246;9.648;2023-11-18T09:24:08;10.70;99.90
15386;DHT22;7791;47.246;9.648;2023-11-18T09:26:33;10.50;99.90
15386;DHT22;7791;47.246;9.648;2023-11-18T09:28:59;9.90;99.90
15386;DHT22;7791;47.246;9.648;2023-11-18T09:31:25;9.90;99.90
15386;DHT22;7791;47.246;9.648;2023-11-18T09:33:54;9.80;99.90
15386;DHT22;7791;47.246;9.648;2023-11-18T09:36:23;9.60;99.90
15386;DHT22;7791;47.246;9.648;2023-11-18T09:38:49;9.20;99.90
15386;DHT22;7791;47.246;9.648;2023-11-18T09:41:15;8.90;99.90
15386;DHT22;7791;47.246;9.648;2023-11-18T09:43:42;9.20;99.90
15386;DHT22;7791;47.246;9.648;2023-11-18T09:46:09;9.50;99.90
15386;DHT22;7791;47.246;9.648;2023-11-18T09:48:35;9.90;99.90
15386;DHT22;7791;47.246;9.648;2023-11-18T09:51:03;10.00;99.90
15386;DHT22;7791;47.246;9.648;2023-11-18T09:53:31;10.50;99.90
15386;DHT22;7791;47.246;9.648;2023-11-18T09:56:07;11.00;99.90
15386;DHT22;7791;47.246;9.648;2023-11-18T09:58:39;11.10;99.90
15386;DHT22;7791;47.246;9.648;2023-11-18T10:01:06;10.90;99.90
15386;DHT22;7791;47.246;9.648;2023-11-18T10:03:35;10.80;99.90
15386;DHT22;7791;47.246;9.648;2023-11-18T10:06:04;10.70;99.90
15386;DHT22;7791;47.246;9.648;2023-11-18T10:08:30;10.80;99.90
15386;DHT22;7791;47.246;9.648;2023-11-18T10:10:56;10.60;99.90
15386;DHT22;7791;47.246;9.648;2023-11-18T10:13:22;10.70;99.90
15386;DHT22;7791;47.246;9.648;2023-11-18T10:15:49;10.80;99.90
15386;DHT22;7791;47.246;9.648;2023-11-18T10:18:15;10.50;99.90
15386;DHT22;7791;47.246;9.648;2023-11-18T10:20:45;10.50;99.90
15386;DHT22;7791;47.246;9.648;2023-11-18T10:23:15;10.20;99.90
15386;DHT22;7791;47.246;9.648;2023-11-18T10:25:45;10.20;99.90
15386;DHT22;7791;47.246;9.648;2023-11-18T10:28:21;10.50;99.90
15386;DHT22;7791;47.246;9.648;2023-11-18T10:30:48;10.00;99.90
15386;DHT22;7791;47.246;9.648;2023-11-18T10:33:14;9.90;99.90
15386;DHT22;7791;47.246;9.648;2023-11-18T10:35:48;10.10;99.90
15386;DHT22;7791;47.246;9.648;2023-11-18T10:38:15;10.10;99.90
15386;DHT22;7791;47.246;9.648;2023-11-18T10:40:41;10.40;99.90
15386;DHT22;7791;47.246;9.648;2023-11-18T10:43:07;10.90;99.90
15386;DHT22;7791;47.246;9.648;2023-11-18T10:45:33;11.10;99.90
15386;DHT22;7791;47.246;9.648;2023-11-18T10:47:59;10.80;99.90
15386;DHT22;7791;47.246;9.648;2023-11-18T10:50:25;10.60;99.90
15386;DHT22;7791;47.246;9.648;2023-11-18T10:52:51;10.80;99.90
15386;DHT22;7791;47.246;9.648;2023-11-18T10:55:19;11.30;99.90
15386;DHT22;7791;47.246;9.648;2023-11-18T10:57:47;11.50;99.90
15386;DHT22;7791;47.246;9.648;2023-11-18T11:00:13;11.50;99.90
15386;DHT22;7791;47.246;9.648;2023-11-18T11:02:39;10.90;99.90
15386;DHT22;7791;47.246;9.648;2023-11-18T11:05:05;10.50;99.90
15386;DHT22;7791;47.246;9.648;2023-11-18T11:07:32;10.40;99.90
15386;DHT22;7791;47.246;9.648;2023-11-18T11:09:59;10.50;99.90
15386;DHT22;7791;47.246;9.648;2023-11-18T11:12:28;10.70;99.90
15386;DHT22;7791;47.246;9.648;2023-11-18T11:14:59;10.90;99.90
15386;DHT22;7791;47.246;9.648;2023-11-18T11:17:27;10.40;99.90
15386;DHT22;7791;47.246;9.648;2023-11-18T11:19:59;10.20;99.90
15386;DHT22;7791;47.246;9.648;2023-11-18T11:22:33;10.60;99.90
15386;DHT22;7791;47.246;9.648;2023-11-18T11:25:08;10.60;99.90
15386;DHT22;7791;47.246;9.648;2023-11-18T11:27:45;10.60;99.90
15386;DHT22;7791;47.246;9.648;2023-11-18T11:30:20;10.80;99.90
15386;DHT22;7791;47.246;9.648;2023-11-18T11:32:51;11.00;99.90
15386;DHT22;7791;47.246;9.648;2023-11-18T11:35:22;11.20;99.90
15386;DHT22;7791;47.246;9.648;2023-11-18T11:37:49;11.20;99.90
15386;DHT22;7791;47.246;9.648;2023-11-18T11:40:15;11.40;99.90
15386;DHT22;7791;47.246;9.648;2023-11-18T11:42:44;11.40;99.90
15386;DHT22;7791;47.246;9.648;2023-11-18T11:45:10;11.50;99.90
15386;DHT22;7791;47.246;9.648;2023-11-18T11:47:36;11.40;99.90
15386;DHT22;7791;47.246;9.648;2023-11-18T11:50:08;11.20;99.90
15386;DHT22;7791;47.246;9.648;2023-11-18T11:52:36;11.30;99.90
15386;DHT22;7791;47.246;9.648;2023-11-18T11:55:09;11.30;99.90
15386;DHT22;7791;47.246;9.648;2023-11-18T11:57:35;11.40;99.90
15386;DHT22;7791;47.246;9.648;2023-11-18T12:00:09;11.40;99.90
15386;DHT22;7791;47.246;9.648;2023-11-18T12:02:35;11.50;99.90
15386;DHT22;7791;47.246;9.648;2023-11-18T12:05:01;11.50;99.90
15386;DHT22;7791;47.246;9.648;2023-11-18T12:07:27;11.40;99.90
15386;DHT22;7791;47.246;9.648;2023-11-18T12:09:57;11.20;99.90
15386;DHT22;7791;47.246;9.648;2023-11-18T12:12:24;11.30;99.90
15386;DHT22;7791;47.246;9.648;2023-11-18T12:14:50;11.50;99.90
15386;DHT22;7791;47.246;9.648;2023-11-18T12:17:18;11.60;99.90
15386;DHT22;7791;47.246;9.648;2023-11-18T12:19:44;11.80;99.90
15386;DHT22;7791;47.246;9.648;2023-11-18T12:22:10;11.90;99.90
15386;DHT22;7791;47.246;9.648;2023-11-18T12:24:35;11.90;99.90
15386;DHT22;7791;47.246;9.648;2023-11-18T12:27:01;12.10;99.90
15386;DHT22;7791;47.246;9.648;2023-11-18T12:29:33;12.10;99.90
15386;DHT22;7791;47.246;9.648;2023-11-18T12:31:58;11.70;99.90
15386;DHT22;7791;47.246;9.648;2023-11-18T12:34:49;11.20;99.90
15386;DHT22;7791;47.246;9.648;2023-11-18T12:37:33;11.20;99.90
15386;DHT22;7791;47.246;9.648;2023-11-18T12:43:10;11.20;99.90
15386;DHT22;7791;47.246;9.648;2023-11-18T12:48:30;11.20;99.90
15386;DHT22;7791;47.246;9.648;2023-11-18T12:50:58;11.10;99.90
15386;DHT22;7791;47.246;9.648;2023-11-18T12:53:24;11.10;99.90
15386;DHT22;7791;47.246;9.648;2023-11-18T12:55:50;11.10;99.90
15386;DHT22;7791;47.246;9.648;2023-11-18T12:58:17;11.10;99.90
15386;DHT22;7791;47.246;9.648;2023-11-18T13:00:43;11.30;99.90
15386;DHT22;7791;47.246;9.648;2023-11-18T13:03:09;11.40;99.90
15386;DHT22;7791;47.246;9.648;2023-11-18T13:05:35;11.30;99.90
15386;DHT22;7791;47.246;9.648;2023-11-18T13:08:02;11.50;99.90
15386;DHT22;7791;47.246;9.648;2023-11-18T13:10:28;11.60;99.90
15386;DHT22;7791;47.246;9.648;2023-11-18T13:12:54;11.60;99.90
15386;DHT22;7791;47.246;9.648;2023-11-18T13:15:20;11.50;99.90
15386;DHT22;7791;47.246;9.648;2023-11-18T13:17:57;11.30;99.90
15386;DHT22;7791;47.246;9.648;2023-11-18T13:20:23;11.40;99.90
15386;DHT22;7791;47.246;9.648;2023-11-18T13:22:49;11.50;99.90
15386;DHT22;7791;47.246;9.648;2023-11-18T13:25:16;11.10;99.90
15386;DHT22;7791;47.246;9.648;2023-11-18T13:27:42;11.00;99.90
15386;DHT22;7791;47.246;9.648;2023-11-18T13:30:08;11.10;99.90
15386;DHT22;7791;47.246;9.648;2023-11-18T13:32:34;11.20;99.90
15386;DHT22;7791;47.246;9.648;2023-11-18T13:35:01;11.10;99.90
15386;DHT22;7791;47.246;9.648;2023-11-18T13:37:27;11.00;99.90
15386;DHT22;7791;47.246;9.648;2023-11-18T13:39:56;10.90;99.90
15386;DHT22;7791;47.246;9.648;2023-11-18T13:42:25;10.70;99.90
15386;DHT22;7791;47.246;9.648;2023-11-18T13:44:51;10.50;99.90
15386;DHT22;7791;47.246;9.648;2023-11-18T13:47:17;10.40;99.90
15386;DHT22;7791;47.246;9.648;2023-11-18T13:49:43;10.20;99.90
15386;DHT22;7791;47.246;9.648;2023-11-18T13:52:09;10.20;99.90
15386;DHT22;7791;47.246;9.648;2023-11-18T13:54:35;10.20;99.90
15386;DHT22;7791;47.246;9.648;2023-11-18T13:57:01;10.00;99.90
15386;DHT22;7791;47.246;9.648;2023-11-18T13:59:36;9.80;99.90
15386;DHT22;7791;47.246;9.648;2023-11-18T14:02:02;9.60;99.90
15386;DHT22;7791;47.246;9.648;2023-11-18T14:04:28;9.50;99.90
15386;DHT22;7791;47.246;9.648;2023-11-18T14:07:01;9.40;99.90
15386;DHT22;7791;47.246;9.648;2023-11-18T14:13:16;9.10;99.90
15386;DHT22;7791;47.246;9.648;2023-11-18T14:16:29;8.90;99.90
15386;DHT22;7791;47.246;9.648;2023-11-18T14:18:59;8.80;99.90
15386;DHT22;7791;47.246;9.648;2023-11-18T14:21:40;8.70;99.90
15386;DHT22;7791;47.246;9.648;2023-11-18T14:24:20;8.60;99.90
15386;DHT22;7791;47.246;9.648;2023-11-18T14:26:50;8.70;99.90
15386;DHT22;7791;47.246;9.648;2023-11-18T14:29:22;8.80;99.90
15386;DHT22;7791;47.246;9.648;2023-11-18T14:32:02;8.50;99.90
15386;DHT22;7791;47.246;9.648;2023-11-18T14:34:34;8.40;99.90
15386;DHT22;7791;47.246;9.648;2023-11-18T14:37:17;8.50;99.90
15386;DHT22;7791;47.246;9.648;2023-11-18T14:39:50;8.70;99.90
15386;DHT22;7791;47.246;9.648;2023-11-18T14:42:25;8.70;99.90
15386;DHT22;7791;47.246;9.648;2023-11-18T14:44:58;8.70;99.90
15386;DHT22;7791;47.246;9.648;2023-11-18T14:47:45;8.60;99.90
15386;DHT22;7791;47.246;9.648;2023-11-18T14:50:18;8.60;99.90
15386;DHT22;7791;47.246;9.648;2023-11-18T14:52:56;8.60;99.90
15386;DHT22;7791;47.246;9.648;2023-11-18T14:58:36;8.50;99.90
15386;DHT22;7791;47.246;9.648;2023-11-18T15:01:16;8.40;99.90
15386;DHT22;7791;47.246;9.648;2023-11-18T15:04:01;8.30;99.90
15386;DHT22;7791;47.246;9.648;2023-11-18T15:07:19;8.20;99.90
15386;DHT22;7791;47.246;9.648;2023-11-18T15:09:42;8.00;99.90
15386;DHT22;7791;47.246;9.648;2023-11-18T15:12:27;7.90;99.90
15386;DHT22;7791;47.246;9.648;2023-11-18T15:15:07;7.90;99.90
15386;DHT22;7791;47.246;9.648;2023-11-18T15:17:53;7.80;99.90
15386;DHT22;7791;47.246;9.648;2023-11-18T15:22:04;7.80;99.90
15386;DHT22;7791;47.246;9.648;2023-11-18T15:23:22;7.80;99.90
15386;DHT22;7791;47.246;9.648;2023-11-18T15:25:48;7.80;99.90
15386;DHT22;7791;47.246;9.648;2023-11-18T15:28:14;7.80;99.90
15386;DHT22;7791;47.246;9.648;2023-11-18T15:31:10;7.70;99.90
15386;DHT22;7791;47.246;9.648;2023-11-18T15:33:44;7.50;99.90
15386;DHT22;7791;47.246;9.648;2023-11-18T15:36:30;7.50;99.90
15386;DHT22;7791;47.246;9.648;2023-11-18T15:42:07;7.50;99.90
15386;DHT22;7791;47.246;9.648;2023-11-18T15:44:44;7.50;99.90
15386;DHT22;7791;47.246;9.648;2023-11-18T15:47:16;7.50;99.90
15386;DHT22;7791;47.246;9.648;2023-11-18T15:50:05;7.60;99.90
15386;DHT22;7791;47.246;9.648;2023-11-18T15:52:51;7.70;99.90
15386;DHT22;7791;47.246;9.648;2023-11-18T15:55:21;7.70;99.90
15386;DHT22;7791;47.246;9.648;2023-11-18T15:57:54;7.70;99.90
15386;DHT22;7791;47.246;9.648;2023-11-18T16:01:01;7.70;99.90
15386;DHT22;7791;47.246;9.648;2023-11-18T16:03:32;7.70;99.90
15386;DHT22;7791;47.246;9.648;2023-11-18T16:06:12;7.70;99.90
15386;DHT22;7791;47.246;9.648;2023-11-18T16:11:38;7.60;99.90
15386;DHT22;7791;47.246;9.648;2023-11-18T16:17:16;7.40;99.90
15386;DHT22;7791;47.246;9.648;2023-11-18T16:20:03;7.40;99.90
15386;DHT22;7791;47.246;9.648;2023-11-18T16:22:43;7.30;99.90
15386;DHT22;7791;47.246;9.648;2023-11-18T16:25:20;7.30;99.90